Terminal Aerodrome Forecast
Issued by NWS Albuquerque, NM

Current Version | Previous Version | Text Only | Print | Product List | Glossary On
Versions: 1 2 3 4 5 6 7 8 9 10 11 12 13 14 15 16 17 18 19 20 21
000
FTUS45 KABQ 010536
TAFABQ
TAF
KABQ 010536Z 0106/0206 11008KT P6SM FEW080 BKN110
     FM010900 04006KT P6SM BKN110
     FM012100 22010KT P6SM VCSH SCT060 BKN100
     FM020200 11009KT P6SM FEW060 BKN100=

USA.gov is the U.S. government's official web portal to all federal, state and local government web resources and services.